Time;durP1;ratioP1;P1;durP2;ratioP2;P2;SDS_P1;SDS_P2;PMS_P1;PMS_P2;Temp;Humidity;BMP_temperature;BMP_pressure;BME280_temperature;BME280_humidity;BME280_pressure;Samples;Min_cycle;Max_cycle;Signal;HPM_P1;HPM_P2
2022/03/30 00:01:03;;;;;;;;;;;10.80;86.00;;;;;;5116407;28;19916;-89
2022/03/30 00:03:28;;;;;;;;;;;10.80;85.80;;;;;;5116425;28;19919;-89
2022/03/30 00:05:54;;;;;;;;;;;10.80;85.60;;;;;;5116585;28;19996;-89
2022/03/30 00:08:19;;;;;;;;;;;10.80;85.60;;;;;;5116273;28;19930;-89
2022/03/30 00:10:45;;;;;;;;;;;10.80;85.60;;;;;;5116242;28;19907;-89
2022/03/30 00:13:10;;;;;;;;;;;10.70;85.60;;;;;;5116302;28;20262;-90
2022/03/30 00:15:36;;;;;;;;;;;10.70;85.60;;;;;;5116231;28;19980;-90
2022/03/30 00:18:02;;;;;;;;;;;10.70;85.70;;;;;;5116117;28;19994;-89
2022/03/30 00:20:27;;;;;;;;;;;10.70;85.80;;;;;;5116131;28;19915;-90
2022/03/30 00:22:53;;;;;;;;;;;10.70;85.80;;;;;;5115990;28;19947;-88
2022/03/30 00:25:20;;;;;;;;;;;10.70;85.80;;;;;;5116094;28;19908;-90
2022/03/30 00:27:46;;;;;;;;;;;10.80;85.80;;;;;;5115977;28;19908;-89
2022/03/30 00:30:13;;;;;;;;;;;10.80;85.60;;;;;;5115849;28;19961;-89
2022/03/30 00:32:38;;;;;;;;;;;10.80;85.40;;;;;;5115782;28;19923;-89
2022/03/30 00:35:05;;;;;;;;;;;10.80;85.10;;;;;;5116067;28;19908;-89
2022/03/30 00:37:31;;;;;;;;;;;10.70;84.50;;;;;;5115714;28;19915;-89
2022/03/30 00:39:56;;;;;;;;;;;10.60;84.30;;;;;;5115733;28;19908;-89
2022/03/30 00:42:23;;;;;;;;;;;10.50;84.40;;;;;;5115414;28;19965;-89
2022/03/30 00:44:48;;;;;;;;;;;10.40;84.40;;;;;;5115618;28;20357;-89
2022/03/30 00:47:18;;;;;;;;;;;10.30;84.40;;;;;;5115553;28;19999;-89
2022/03/30 00:49:44;;;;;;;;;;;10.20;84.50;;;;;;5115448;28;19908;-90
2022/03/30 00:52:10;;;;;;;;;;;10.20;84.90;;;;;;5115471;28;19986;-90
2022/03/30 00:54:36;;;;;;;;;;;10.10;85.00;;;;;;5115415;28;19930;-89
2022/03/30 00:57:02;;;;;;;;;;;10.00;85.60;;;;;;5115392;28;19912;-89
2022/03/30 00:59:27;;;;;;;;;;;10.00;85.80;;;;;;5115292;28;19907;-89
2022/03/30 01:01:53;;;;;;;;;;;10.10;85.60;;;;;;5115237;28;19912;-90
2022/03/30 01:04:18;;;;;;;;;;;10.10;85.80;;;;;;5114563;28;19953;-89
2022/03/30 01:06:45;;;;;;;;;;;10.20;85.60;;;;;;5114768;28;19908;-89
2022/03/30 01:09:11;;;;;;;;;;;10.10;85.50;;;;;;5115012;28;19942;-90
2022/03/30 01:11:37;;;;;;;;;;;10.10;85.50;;;;;;5115127;28;20304;-90
2022/03/30 01:14:03;;;;;;;;;;;10.10;85.30;;;;;;5115038;28;19908;-89
2022/03/30 01:16:29;;;;;;;;;;;10.00;85.00;;;;;;5114986;28;19943;-89
2022/03/30 01:19:02;;;;;;;;;;;9.90;85.10;;;;;;5114905;28;19907;-89
2022/03/30 01:21:28;;;;;;;;;;;9.80;85.40;;;;;;5114828;28;20010;-89
2022/03/30 01:23:53;;;;;;;;;;;9.80;85.90;;;;;;5115083;28;19954;-89
2022/03/30 01:26:19;;;;;;;;;;;9.90;86.00;;;;;;5114755;28;20346;-90
2022/03/30 01:28:44;;;;;;;;;;;9.80;86.00;;;;;;5114659;28;19908;-89
2022/03/30 01:33:54;;;;;;;;;;;9.80;85.80;;;;;;5114674;28;19930;-89
2022/03/30 01:36:22;;;;;;;;;;;9.80;85.80;;;;;;5114542;28;20318;-89
2022/03/30 01:38:47;;;;;;;;;;;9.80;85.90;;;;;;5114527;28;19990;-89
2022/03/30 01:41:13;;;;;;;;;;;9.80;86.10;;;;;;5114343;28;20015;-89
2022/03/30 01:43:39;;;;;;;;;;;9.70;86.10;;;;;;5114451;28;20002;-89
2022/03/30 01:46:05;;;;;;;;;;;9.80;86.10;;;;;;5114371;28;20426;-89
2022/03/30 01:48:31;;;;;;;;;;;9.80;86.20;;;;;;5114306;28;19915;-88
2022/03/30 01:50:57;;;;;;;;;;;9.80;86.10;;;;;;5114345;28;19907;-90
2022/03/30 01:53:22;;;;;;;;;;;9.80;85.70;;;;;;5114058;28;19990;-90
2022/03/30 01:55:48;;;;;;;;;;;9.70;85.80;;;;;;5114264;28;19908;-89
2022/03/30 01:58:13;;;;;;;;;;;9.70;86.10;;;;;;5114213;28;19907;-89
2022/03/30 02:00:39;;;;;;;;;;;9.80;86.20;;;;;;5114213;28;20365;-89
2022/03/30 02:03:04;;;;;;;;;;;9.90;86.30;;;;;;5114049;28;20002;-89
2022/03/30 02:05:31;;;;;;;;;;;9.90;86.20;;;;;;5114127;28;19907;-89
2022/03/30 02:07:56;;;;;;;;;;;10.00;86.20;;;;;;5113979;28;19954;-89
2022/03/30 02:10:22;;;;;;;;;;;9.90;85.90;;;;;;5113917;28;19911;-89
2022/03/30 02:12:48;;;;;;;;;;;10.00;85.80;;;;;;5113912;28;19969;-88
2022/03/30 02:15:13;;;;;;;;;;;10.10;85.70;;;;;;5113912;28;19964;-89
2022/03/30 02:17:39;;;;;;;;;;;10.10;85.60;;;;;;5113595;28;19908;-89
2022/03/30 02:20:05;;;;;;;;;;;10.10;85.80;;;;;;5113893;28;20415;-89
2022/03/30 02:22:31;;;;;;;;;;;10.10;85.80;;;;;;5113772;28;19920;-88
2022/03/30 02:24:56;;;;;;;;;;;10.00;85.90;;;;;;5113765;28;19908;-89
2022/03/30 02:27:22;;;;;;;;;;;10.00;86.20;;;;;;5113679;28;19912;-89
2022/03/30 02:29:48;;;;;;;;;;;9.90;86.60;;;;;;5113687;28;19952;-88
2022/03/30 02:32:14;;;;;;;;;;;10.00;87.00;;;;;;5095305;28;20330;-89
2022/03/30 02:34:40;;;;;;;;;;;10.00;87.10;;;;;;5113687;28;19954;-88
2022/03/30 02:37:06;;;;;;;;;;;10.10;87.00;;;;;;5113926;28;19931;-89
2022/03/30 02:40:39;;;;;;;;;;;10.20;86.80;;;;;;5111107;27;19912;-89
2022/03/30 02:43:05;;;;;;;;;;;10.20;86.50;;;;;;5111116;28;20011;-90
2022/03/30 02:45:30;;;;;;;;;;;10.30;86.40;;;;;;5110984;28;19915;-89
2022/03/30 02:50:41;;;;;;;;;;;10.40;86.10;;;;;;5111251;28;20006;-89
2022/03/30 02:53:06;;;;;;;;;;;10.40;85.90;;;;;;5110937;28;19908;-90
2022/03/30 02:55:32;;;;;;;;;;;10.50;85.80;;;;;;5110850;28;19999;-89
2022/03/30 02:57:57;;;;;;;;;;;10.50;85.90;;;;;;5110776;28;19908;-89
2022/03/30 03:00:23;;;;;;;;;;;10.60;85.90;;;;;;5110937;28;19919;-90
2022/03/30 03:02:49;;;;;;;;;;;10.50;85.70;;;;;;5110633;28;19987;-90
2022/03/30 03:05:14;;;;;;;;;;;10.50;85.50;;;;;;5110760;28;19911;-89
2022/03/30 03:07:41;;;;;;;;;;;10.40;85.70;;;;;;5110612;28;19912;-89
2022/03/30 03:10:07;;;;;;;;;;;10.40;86.10;;;;;;5110815;28;19915;-89
2022/03/30 03:12:33;;;;;;;;;;;10.40;86.30;;;;;;5110573;28;19912;-89
2022/03/30 03:14:58;;;;;;;;;;;10.40;86.50;;;;;;5110486;28;19915;-89
2022/03/30 03:17:24;;;;;;;;;;;10.40;86.60;;;;;;5110397;28;19958;-89
2022/03/30 03:19:49;;;;;;;;;;;10.40;86.70;;;;;;5110332;28;20406;-90
2022/03/30 03:22:15;;;;;;;;;;;10.40;86.80;;;;;;5110336;28;19973;-90
2022/03/30 03:24:40;;;;;;;;;;;10.40;86.90;;;;;;5110325;28;19935;-89
2022/03/30 03:27:06;;;;;;;;;;;10.40;87.00;;;;;;5110216;28;19908;-89
2022/03/30 03:29:31;;;;;;;;;;;10.40;87.00;;;;;;5110147;28;19930;-89
2022/03/30 03:31:57;;;;;;;;;;;10.40;86.90;;;;;;5110069;28;19908;-89
2022/03/30 03:34:22;;;;;;;;;;;10.40;87.00;;;;;;5110140;28;19968;-89
2022/03/30 03:36:48;;;;;;;;;;;10.40;87.00;;;;;;5110390;28;19915;-89
2022/03/30 03:39:13;;;;;;;;;;;10.40;87.00;;;;;;5108086;28;19920;-88
2022/03/30 03:41:39;;;;;;;;;;;10.40;87.10;;;;;;5096186;28;19966;-88
2022/03/30 03:44:06;;;;;;;;;;;10.30;87.20;;;;;;5107935;28;19908;-89
2022/03/30 03:46:31;;;;;;;;;;;10.30;87.30;;;;;;5110094;28;20315;-89
2022/03/30 03:48:57;;;;;;;;;;;10.20;87.30;;;;;;5094955;28;19908;-90
2022/03/30 03:51:23;;;;;;;;;;;10.20;87.30;;;;;;5079570;28;19920;-89
2022/03/30 03:53:49;;;;;;;;;;;10.20;87.30;;;;;;5076196;28;19916;-89
2022/03/30 03:56:14;;;;;;;;;;;10.20;87.30;;;;;;5086251;28;19908;-89
2022/03/30 03:58:40;;;;;;;;;;;10.20;87.40;;;;;;5096026;28;19919;-89
2022/03/30 04:01:05;;;;;;;;;;;10.20;87.40;;;;;;5081148;28;20054;-89
2022/03/30 04:03:31;;;;;;;;;;;10.30;87.60;;;;;;5079195;28;19999;-90
2022/03/30 04:05:56;;;;;;;;;;;10.30;87.50;;;;;;5076074;28;19913;-89
2022/03/30 04:08:22;;;;;;;;;;;10.40;87.40;;;;;;5075843;28;19909;-89
2022/03/30 04:10:48;;;;;;;;;;;10.40;87.40;;;;;;5088794;28;19915;-90
2022/03/30 04:13:13;;;;;;;;;;;10.40;87.20;;;;;;5087575;28;19908;-89
2022/03/30 04:15:39;;;;;;;;;;;10.50;87.00;;;;;;5083933;28;19912;-89
2022/03/30 04:18:04;;;;;;;;;;;10.50;86.80;;;;;;5093318;28;19912;-89
2022/03/30 04:20:31;;;;;;;;;;;10.50;86.90;;;;;;5095597;28;19916;-89
2022/03/30 04:22:57;;;;;;;;;;;10.50;87.00;;;;;;5094847;28;19945;-90
2022/03/30 04:25:23;;;;;;;;;;;10.40;87.00;;;;;;5095850;28;19989;-89
2022/03/30 04:27:50;;;;;;;;;;;10.40;87.00;;;;;;5095081;28;19911;-89
2022/03/30 04:30:16;;;;;;;;;;;10.40;87.10;;;;;;5095684;28;19915;-88
2022/03/30 04:32:42;;;;;;;;;;;10.40;87.10;;;;;;5094366;28;20350;-88
2022/03/30 04:35:08;;;;;;;;;;;10.30;87.20;;;;;;5095386;28;20483;-89
2022/03/30 04:37:35;;;;;;;;;;;10.30;87.10;;;;;;5095301;28;20358;-88
2022/03/30 04:40:00;;;;;;;;;;;10.40;87.10;;;;;;5095034;28;19985;-88
2022/03/30 04:42:26;;;;;;;;;;;10.40;87.00;;;;;;5094121;28;20357;-89
2022/03/30 04:44:51;;;;;;;;;;;10.40;86.90;;;;;;5095116;28;19908;-89
2022/03/30 04:47:17;;;;;;;;;;;10.40;86.80;;;;;;5095134;28;19908;-89
2022/03/30 04:49:42;;;;;;;;;;;10.40;86.70;;;;;;5093380;28;20282;-88
2022/03/30 04:52:09;;;;;;;;;;;10.40;86.60;;;;;;5090825;28;19999;-89
2022/03/30 04:54:35;;;;;;;;;;;10.50;86.60;;;;;;5090295;28;19919;-89
2022/03/30 04:57:00;;;;;;;;;;;10.50;86.40;;;;;;5074571;28;19912;-88
2022/03/30 04:59:26;;;;;;;;;;;10.50;86.40;;;;;;5088667;28;19923;-89
2022/03/30 05:01:51;;;;;;;;;;;10.50;86.40;;;;;;5080409;28;19923;-88
2022/03/30 05:04:17;;;;;;;;;;;10.50;86.30;;;;;;5083227;28;20292;-88
2022/03/30 05:06:43;;;;;;;;;;;10.50;86.30;;;;;;5084713;28;20382;-88
2022/03/30 05:09:08;;;;;;;;;;;10.40;86.30;;;;;;5078645;28;20369;-88
2022/03/30 05:11:34;;;;;;;;;;;10.50;86.30;;;;;;5083391;28;19995;-89
2022/03/30 05:13:59;;;;;;;;;;;10.50;86.20;;;;;;5094585;28;19948;-88
2022/03/30 05:16:25;;;;;;;;;;;10.50;86.10;;;;;;5083290;28;19931;-88
2022/03/30 05:18:50;;;;;;;;;;;10.40;86.00;;;;;;5092400;28;19924;-88
2022/03/30 05:21:16;;;;;;;;;;;10.50;85.90;;;;;;5090150;28;19914;-88
2022/03/30 05:23:41;;;;;;;;;;;10.50;85.80;;;;;;5083988;28;20373;-87
2022/03/30 05:26:07;;;;;;;;;;;10.60;85.70;;;;;;5088989;28;19912;-87
2022/03/30 05:28:32;;;;;;;;;;;10.60;85.70;;;;;;5085171;28;20278;-87
2022/03/30 05:33:19;;;;;;;;;;;10.60;85.50;;;;;;5089000;27;19916;-88
2022/03/30 05:35:44;;;;;;;;;;;10.60;85.30;;;;;;5095506;28;19918;-88
2022/03/30 05:38:10;;;;;;;;;;;10.60;85.30;;;;;;5096693;28;19927;-88
2022/03/30 05:42:27;;;;;;;;;;;10.70;85.30;;;;;;5099546;27;20400;-89
2022/03/30 05:44:54;;;;;;;;;;;10.70;85.20;;;;;;5076963;28;19912;-88
2022/03/30 05:47:20;;;;;;;;;;;10.80;85.00;;;;;;5069891;28;19942;-88
2022/03/30 05:49:45;;;;;;;;;;;10.90;84.80;;;;;;5069439;28;19912;-88
2022/03/30 05:52:25;;;;;;;;;;;10.90;84.60;;;;;;5100900;27;19916;-88
2022/03/30 05:54:50;;;;;;;;;;;10.90;84.50;;;;;;5094678;28;20569;-88
2022/03/30 05:58:28;;;;;;;;;;;11.00;84.30;;;;;;5103991;27;20312;-88
2022/03/30 06:00:54;;;;;;;;;;;11.00;84.20;;;;;;5084954;28;19911;-88
2022/03/30 06:03:19;;;;;;;;;;;11.10;84.10;;;;;;5085411;28;20366;-89
2022/03/30 06:05:45;;;;;;;;;;;11.10;83.90;;;;;;5096753;28;19935;-88
2022/03/30 06:08:10;;;;;;;;;;;11.20;83.70;;;;;;5086417;28;19974;-88
2022/03/30 06:10:36;;;;;;;;;;;11.20;83.40;;;;;;5087196;28;20267;-88
2022/03/30 06:13:02;;;;;;;;;;;11.30;83.60;;;;;;5088961;28;19973;-88
2022/03/30 06:15:28;;;;;;;;;;;11.40;83.50;;;;;;5084891;28;19920;-88
2022/03/30 06:17:54;;;;;;;;;;;11.50;83.10;;;;;;5083267;28;19924;-88
2022/03/30 06:20:21;;;;;;;;;;;11.70;82.80;;;;;;5085847;28;19920;-88
2022/03/30 06:22:46;;;;;;;;;;;11.80;82.20;;;;;;5083622;28;19920;-88
2022/03/30 06:25:12;;;;;;;;;;;11.90;81.60;;;;;;5084495;28;19912;-88
2022/03/30 06:27:38;;;;;;;;;;;12.10;81.10;;;;;;5085405;28;19912;-88
2022/03/30 06:30:05;;;;;;;;;;;12.20;80.80;;;;;;5084245;28;20418;-88
2022/03/30 06:32:31;;;;;;;;;;;12.30;80.50;;;;;;5084790;28;19912;-87
2022/03/30 06:34:56;;;;;;;;;;;12.40;79.40;;;;;;5084506;28;20263;-88
2022/03/30 06:37:22;;;;;;;;;;;12.40;79.20;;;;;;5084836;28;19920;-88
2022/03/30 06:39:49;;;;;;;;;;;12.30;79.60;;;;;;5079144;28;19916;-87
2022/03/30 06:42:16;;;;;;;;;;;12.10;80.00;;;;;;5079959;28;20078;-88
2022/03/30 06:44:42;;;;;;;;;;;11.90;80.50;;;;;;5076686;28;19912;-88
2022/03/30 06:47:08;;;;;;;;;;;11.90;81.10;;;;;;5076152;28;19920;-88
2022/03/30 06:49:34;;;;;;;;;;;11.90;81.30;;;;;;5087969;28;19930;-89
2022/03/30 06:51:59;;;;;;;;;;;12.00;81.80;;;;;;5082203;28;19920;-88
2022/03/30 06:54:25;;;;;;;;;;;12.10;82.00;;;;;;5080903;28;19912;-88
2022/03/30 06:56:51;;;;;;;;;;;12.30;82.00;;;;;;5081333;28;19927;-88
2022/03/30 06:59:18;;;;;;;;;;;12.30;81.90;;;;;;5088908;28;19912;-88
2022/03/30 07:01:44;;;;;;;;;;;12.40;81.30;;;;;;5085661;28;19996;-88
2022/03/30 07:04:10;;;;;;;;;;;12.50;80.70;;;;;;5082327;28;19998;-88
2022/03/30 07:06:36;;;;;;;;;;;12.50;80.30;;;;;;5084232;28;19912;-89
2022/03/30 07:11:45;;;;;;;;;;;12.60;80.20;;;;;;5069773;28;19958;-89
2022/03/30 07:14:11;;;;;;;;;;;12.60;79.90;;;;;;5064784;28;19920;-89
2022/03/30 07:16:36;;;;;;;;;;;12.60;79.60;;;;;;5064011;28;19936;-88
2022/03/30 07:19:02;;;;;;;;;;;12.60;79.90;;;;;;5066203;28;19913;-88
2022/03/30 07:21:28;;;;;;;;;;;12.40;80.40;;;;;;5078269;28;19912;-88
2022/03/30 07:23:53;;;;;;;;;;;12.40;80.80;;;;;;5067302;28;19948;-89
2022/03/30 07:26:20;;;;;;;;;;;12.40;81.10;;;;;;5065521;28;19956;-88
2022/03/30 07:28:45;;;;;;;;;;;12.40;81.20;;;;;;5074702;28;19912;-88
2022/03/30 07:31:11;;;;;;;;;;;12.40;81.40;;;;;;5072507;28;19958;-89
2022/03/30 07:33:37;;;;;;;;;;;12.40;81.10;;;;;;5069615;28;19916;-88
2022/03/30 07:36:02;;;;;;;;;;;12.50;80.70;;;;;;5074521;28;19921;-88
2022/03/30 07:38:28;;;;;;;;;;;12.70;79.90;;;;;;5070274;28;19913;-89
2022/03/30 07:40:55;;;;;;;;;;;12.80;79.40;;;;;;5071424;28;19909;-88
2022/03/30 07:43:21;;;;;;;;;;;13.00;78.80;;;;;;5071533;28;19913;-89
2022/03/30 07:45:46;;;;;;;;;;;13.00;78.60;;;;;;5064515;28;19909;-88
2022/03/30 07:48:15;;;;;;;;;;;13.10;78.30;;;;;;5067809;28;19965;-88
2022/03/30 07:50:41;;;;;;;;;;;13.20;77.70;;;;;;5068664;28;19912;-88
2022/03/30 07:53:08;;;;;;;;;;;13.30;77.50;;;;;;5069062;28;20282;-88
2022/03/30 07:55:34;;;;;;;;;;;13.30;77.20;;;;;;5071822;28;19924;-89
2022/03/30 07:58:00;;;;;;;;;;;13.40;76.40;;;;;;5070055;28;19931;-89
2022/03/30 08:00:26;;;;;;;;;;;13.30;76.50;;;;;;5055843;28;19912;-88
2022/03/30 08:02:52;;;;;;;;;;;13.30;76.80;;;;;;5070549;28;19913;-87
2022/03/30 08:06:12;;;;;;;;;;;13.10;77.20;;;;;;5109381;27;19916;-87
2022/03/30 08:08:38;;;;;;;;;;;13.00;77.50;;;;;;5090124;28;19999;-88
2022/03/30 08:11:03;;;;;;;;;;;13.00;77.80;;;;;;5075526;28;19959;-88
2022/03/30 08:13:29;;;;;;;;;;;13.10;77.60;;;;;;5084456;28;19917;-88
2022/03/30 08:15:54;;;;;;;;;;;13.20;77.40;;;;;;5094757;28;20412;-88
2022/03/30 08:18:21;;;;;;;;;;;13.30;77.00;;;;;;5081618;28;20519;-87
2022/03/30 08:23:30;;;;;;;;;;;13.50;76.40;;;;;;5097198;28;19955;-89
2022/03/30 08:25:56;;;;;;;;;;;13.60;76.20;;;;;;5088586;28;19971;-88
2022/03/30 08:28:21;;;;;;;;;;;13.60;76.20;;;;;;5093000;28;19915;-88
2022/03/30 08:30:48;;;;;;;;;;;13.60;76.00;;;;;;5094482;28;20274;-89
2022/03/30 08:33:16;;;;;;;;;;;13.60;76.40;;;;;;5082776;28;19913;-89
2022/03/30 08:35:42;;;;;;;;;;;13.60;76.40;;;;;;5103665;28;20072;-88
2022/03/30 08:39:29;;;;;;;;;;;13.60;76.10;;;;;;5115018;27;20308;-88
2022/03/30 08:41:55;;;;;;;;;;;13.40;76.60;;;;;;5105486;28;19916;-88
2022/03/30 08:44:21;;;;;;;;;;;13.30;77.50;;;;;;5103288;28;20350;-88
2022/03/30 08:46:47;;;;;;;;;;;13.30;77.40;;;;;;5104500;28;19965;-88
2022/03/30 08:49:13;;;;;;;;;;;13.20;77.30;;;;;;5110982;28;20042;-88
2022/03/30 08:51:40;;;;;;;;;;;13.20;77.80;;;;;;5113785;28;19955;-88
2022/03/30 08:54:09;;;;;;;;;;;13.40;77.60;;;;;;5107241;28;19981;-89
2022/03/30 08:56:36;;;;;;;;;;;13.60;77.10;;;;;;5106639;28;19919;-89
2022/03/30 08:59:04;;;;;;;;;;;13.80;76.70;;;;;;5101185;28;20046;-89
2022/03/30 09:01:33;;;;;;;;;;;13.90;77.30;;;;;;5108823;28;19912;-89
2022/03/30 09:04:00;;;;;;;;;;;14.00;78.00;;;;;;5106809;28;19915;-89
2022/03/30 09:06:36;;;;;;;;;;;14.10;77.40;;;;;;5106413;28;19943;-89
2022/03/30 09:09:02;;;;;;;;;;;14.30;77.30;;;;;;5101879;28;19919;-90
2022/03/30 09:11:30;;;;;;;;;;;14.50;76.00;;;;;;5103722;28;20289;-89
2022/03/30 09:14:02;;;;;;;;;;;14.70;75.40;;;;;;5094010;28;19912;-89
2022/03/30 09:16:36;;;;;;;;;;;14.80;73.60;;;;;;5097919;28;19920;-88
2022/03/30 09:19:02;;;;;;;;;;;14.60;72.80;;;;;;5100842;28;19920;-89
2022/03/30 09:21:41;;;;;;;;;;;14.40;72.70;;;;;;5101489;28;19938;-89
2022/03/30 09:24:06;;;;;;;;;;;14.60;73.90;;;;;;5100714;28;20386;-89
2022/03/30 09:26:32;;;;;;;;;;;14.60;73.40;;;;;;5108202;28;19912;-89
2022/03/30 09:28:58;;;;;;;;;;;14.70;73.40;;;;;;5096352;28;20002;-89
2022/03/30 09:31:25;;;;;;;;;;;14.60;73.30;;;;;;5096087;28;19919;-88
2022/03/30 09:33:53;;;;;;;;;;;14.60;73.30;;;;;;5106831;28;19916;-89
2022/03/30 09:36:29;;;;;;;;;;;14.60;73.80;;;;;;5101231;28;19973;-89
2022/03/30 09:38:54;;;;;;;;;;;14.60;72.80;;;;;;5107081;28;19971;-89
2022/03/30 09:41:20;;;;;;;;;;;14.60;72.50;;;;;;5091817;28;19955;-89
2022/03/30 09:43:45;;;;;;;;;;;14.70;72.00;;;;;;5098310;28;20366;-89
2022/03/30 09:46:12;;;;;;;;;;;14.80;71.60;;;;;;5118368;28;19939;-89
2022/03/30 09:48:40;;;;;;;;;;;14.80;71.00;;;;;;5098926;28;19965;-89
2022/03/30 09:51:09;;;;;;;;;;;14.90;71.40;;;;;;5087435;28;19920;-89
2022/03/30 09:53:36;;;;;;;;;;;14.90;71.80;;;;;;5094336;28;19912;-89
2022/03/30 09:56:01;;;;;;;;;;;15.00;71.40;;;;;;5100927;28;20412;-89
2022/03/30 09:58:29;;;;;;;;;;;15.20;70.90;;;;;;5088725;28;19955;-89
2022/03/30 10:01:03;;;;;;;;;;;15.10;71.00;;;;;;5107875;28;20308;-89
2022/03/30 10:03:42;;;;;;;;;;;15.30;70.30;;;;;;5089656;28;20001;-89
2022/03/30 10:06:11;;;;;;;;;;;15.40;70.00;;;;;;5082741;28;19916;-89
2022/03/30 10:08:41;;;;;;;;;;;15.40;69.10;;;;;;5081492;28;19965;-89
2022/03/30 10:11:06;;;;;;;;;;;15.30;69.00;;;;;;5075537;28;19908;-89
2022/03/30 10:13:32;;;;;;;;;;;15.30;69.50;;;;;;5075640;28;20285;-88
2022/03/30 10:15:58;;;;;;;;;;;15.30;68.70;;;;;;5075538;28;19908;-88
2022/03/30 10:18:24;;;;;;;;;;;15.30;67.90;;;;;;5092324;28;19919;-89
2022/03/30 10:21:01;;;;;;;;;;;15.30;68.10;;;;;;5086270;28;19928;-89
2022/03/30 10:23:26;;;;;;;;;;;15.50;68.00;;;;;;5079551;28;19912;-89
2022/03/30 10:26:18;;;;;;;;;;;15.70;67.00;;;;;;5075415;28;19923;-89
2022/03/30 10:28:47;;;;;;;;;;;15.80;66.40;;;;;;5085200;28;19912;-89
2022/03/30 10:31:13;;;;;;;;;;;15.90;65.90;;;;;;5087799;28;20355;-89
2022/03/30 10:33:44;;;;;;;;;;;15.90;66.20;;;;;;5075166;28;20018;-89
2022/03/30 10:36:29;;;;;;;;;;;15.90;67.00;;;;;;5075056;28;20390;-89
2022/03/30 10:39:11;;;;;;;;;;;15.80;66.70;;;;;;5075089;28;19920;-89
2022/03/30 10:42:03;;;;;;;;;;;16.00;66.60;;;;;;5075109;28;19909;-89
2022/03/30 10:44:44;;;;;;;;;;;16.10;66.30;;;;;;5088286;28;20007;-89
2022/03/30 10:47:16;;;;;;;;;;;16.30;64.80;;;;;;5086350;28;19915;-89
2022/03/30 10:49:44;;;;;;;;;;;16.20;65.20;;;;;;5074905;28;19928;-89
2022/03/30 10:52:29;;;;;;;;;;;16.10;64.80;;;;;;5075096;28;19930;-89
2022/03/30 10:55:13;;;;;;;;;;;16.10;65.50;;;;;;5075033;28;19952;-89
2022/03/30 10:57:49;;;;;;;;;;;16.00;65.80;;;;;;5086727;28;19924;-88
2022/03/30 11:00:22;;;;;;;;;;;15.70;66.50;;;;;;5080431;28;19912;-89
2022/03/30 11:02:48;;;;;;;;;;;15.70;66.50;;;;;;5084925;28;19961;-89
2022/03/30 11:05:18;;;;;;;;;;;15.60;66.80;;;;;;5074828;28;19908;-89
2022/03/30 11:07:43;;;;;;;;;;;15.70;67.40;;;;;;5076893;28;19920;-90
2022/03/30 11:10:19;;;;;;;;;;;15.80;67.10;;;;;;5094916;28;19977;-89
2022/03/30 11:12:58;;;;;;;;;;;15.80;68.50;;;;;;5089959;28;19909;-89
2022/03/30 11:15:23;;;;;;;;;;;15.70;69.40;;;;;;5094920;28;19958;-90
2022/03/30 11:17:49;;;;;;;;;;;15.70;69.60;;;;;;5094554;28;20337;-89
2022/03/30 11:20:15;;;;;;;;;;;15.60;69.30;;;;;;5087196;28;19982;-89
2022/03/30 11:22:45;;;;;;;;;;;15.70;68.50;;;;;;5074108;28;19955;-89
2022/03/30 11:25:17;;;;;;;;;;;15.60;68.00;;;;;;5074706;28;20382;-89
2022/03/30 11:27:45;;;;;;;;;;;15.70;67.80;;;;;;5093153;28;19924;-89
2022/03/30 11:30:12;;;;;;;;;;;15.70;68.00;;;;;;5085404;28;19922;-89
2022/03/30 11:32:54;;;;;;;;;;;15.70;67.40;;;;;;5083749;28;20366;-89
2022/03/30 11:35:20;;;;;;;;;;;15.70;67.30;;;;;;5088811;28;19912;-89
2022/03/30 11:37:48;;;;;;;;;;;15.80;66.90;;;;;;5083113;28;19971;-89
2022/03/30 11:40:15;;;;;;;;;;;15.90;66.20;;;;;;5081432;28;20415;-89
2022/03/30 11:42:45;;;;;;;;;;;15.70;66.30;;;;;;5093112;28;19939;-89
2022/03/30 11:45:15;;;;;;;;;;;15.50;67.60;;;;;;5092321;28;19916;-89
2022/03/30 11:47:48;;;;;;;;;;;15.30;69.10;;;;;;5081864;28;19916;-89
2022/03/30 11:50:20;;;;;;;;;;;15.20;70.30;;;;;;5083997;28;20394;-89
2022/03/30 11:52:53;;;;;;;;;;;15.20;70.60;;;;;;5096783;28;19920;-89
2022/03/30 11:55:18;;;;;;;;;;;15.20;71.90;;;;;;5084147;28;19920;-89
2022/03/30 11:57:44;;;;;;;;;;;15.20;71.20;;;;;;5079913;28;19924;-89
2022/03/30 12:00:11;;;;;;;;;;;15.20;70.70;;;;;;5086391;28;19918;-89
2022/03/30 12:02:42;;;;;;;;;;;15.30;70.30;;;;;;5099438;28;19912;-89
2022/03/30 12:05:08;;;;;;;;;;;15.40;70.80;;;;;;5090158;28;19919;-89
2022/03/30 12:07:37;;;;;;;;;;;15.60;70.80;;;;;;5081614;28;19912;-89
2022/03/30 12:10:04;;;;;;;;;;;15.60;69.90;;;;;;5082618;28;20162;-89
2022/03/30 12:12:37;;;;;;;;;;;15.60;70.10;;;;;;5078799;28;19912;-89
2022/03/30 12:15:11;;;;;;;;;;;15.60;70.50;;;;;;5085550;28;19946;-89
2022/03/30 12:17:37;;;;;;;;;;;15.70;70.40;;;;;;5088145;28;20014;-89
2022/03/30 12:20:05;;;;;;;;;;;15.80;70.60;;;;;;5091219;28;19913;-89
2022/03/30 12:22:31;;;;;;;;;;;16.00;69.20;;;;;;5091567;28;19920;-89
2022/03/30 12:24:57;;;;;;;;;;;16.30;69.20;;;;;;5089105;28;20018;-89
2022/03/30 12:27:22;;;;;;;;;;;16.30;67.90;;;;;;5084730;28;19913;-89
2022/03/30 12:29:48;;;;;;;;;;;16.40;67.70;;;;;;5079636;28;19941;-89
2022/03/30 12:32:15;;;;;;;;;;;16.30;66.60;;;;;;5087847;28;20261;-90
2022/03/30 12:34:42;;;;;;;;;;;16.40;67.40;;;;;;5083626;28;20379;-89
2022/03/30 12:37:09;;;;;;;;;;;16.50;66.50;;;;;;5089676;28;19913;-89
2022/03/30 12:39:38;;;;;;;;;;;16.50;66.80;;;;;;5095667;28;19934;-89
2022/03/30 12:42:05;;;;;;;;;;;16.60;67.10;;;;;;5091675;28;19943;-89
2022/03/30 12:44:31;;;;;;;;;;;16.70;65.80;;;;;;5082583;28;20290;-89
2022/03/30 12:46:58;;;;;;;;;;;16.80;66.60;;;;;;5086765;28;19919;-89
2022/03/30 12:49:34;;;;;;;;;;;16.80;66.90;;;;;;5081569;28;19958;-89
2022/03/30 12:53:16;;;;;;;;;;;16.80;67.30;;;;;;5142151;27;19916;-89
2022/03/30 12:55:48;;;;;;;;;;;17.10;66.50;;;;;;5123098;28;19951;-89
2022/03/30 12:58:20;;;;;;;;;;;17.30;65.50;;;;;;5128517;28;19916;-89
2022/03/30 13:00:47;;;;;;;;;;;17.10;65.40;;;;;;5123594;28;19941;-89
2022/03/30 13:03:16;;;;;;;;;;;16.80;65.80;;;;;;5129306;28;19990;-89
2022/03/30 13:05:47;;;;;;;;;;;16.60;67.10;;;;;;5123004;28;19912;-89
2022/03/30 13:08:12;;;;;;;;;;;16.50;68.80;;;;;;5121164;28;19943;-89
2022/03/30 13:10:48;;;;;;;;;;;16.50;68.70;;;;;;5098616;28;19963;-89
2022/03/30 13:13:15;;;;;;;;;;;16.70;68.90;;;;;;5107717;28;19969;-89
2022/03/30 13:15:41;;;;;;;;;;;16.80;68.00;;;;;;5103930;28;19954;-89
2022/03/30 13:18:10;;;;;;;;;;;16.80;67.70;;;;;;5110342;28;19973;-90
2022/03/30 13:20:36;;;;;;;;;;;16.80;68.00;;;;;;5098871;28;19918;-90
2022/03/30 13:23:06;;;;;;;;;;;16.70;68.40;;;;;;5101454;28;20385;-89
2022/03/30 13:25:42;;;;;;;;;;;16.70;68.50;;;;;;5093057;28;20358;-89
2022/03/30 13:28:19;;;;;;;;;;;16.60;68.70;;;;;;5094009;28;19919;-90
2022/03/30 13:30:45;;;;;;;;;;;16.60;68.80;;;;;;5091141;28;20424;-89
2022/03/30 13:33:10;;;;;;;;;;;16.50;68.90;;;;;;5101333;28;19912;-89
2022/03/30 13:35:36;;;;;;;;;;;16.40;69.40;;;;;;5097159;28;19920;-89
2022/03/30 13:38:02;;;;;;;;;;;16.30;69.60;;;;;;5104087;28;20010;-89
2022/03/30 13:40:27;;;;;;;;;;;16.20;70.30;;;;;;5099058;28;19952;-89
2022/03/30 13:42:53;;;;;;;;;;;16.10;70.80;;;;;;5090007;28;19912;-89
2022/03/30 13:45:18;;;;;;;;;;;16.00;70.90;;;;;;5098904;28;19919;-89
2022/03/30 13:47:44;;;;;;;;;;;16.20;70.80;;;;;;5095546;28;19913;-89
2022/03/30 13:50:10;;;;;;;;;;;16.00;70.50;;;;;;5098855;28;19959;-88
2022/03/30 13:52:36;;;;;;;;;;;15.70;71.80;;;;;;5091588;28;19920;-89
2022/03/30 13:55:02;;;;;;;;;;;15.60;72.70;;;;;;5079121;28;19957;-88
2022/03/30 13:57:27;;;;;;;;;;;15.60;73.10;;;;;;5074719;28;19935;-88
2022/03/30 13:59:53;;;;;;;;;;;15.60;72.20;;;;;;5077127;28;19927;-89
2022/03/30 14:02:18;;;;;;;;;;;15.60;72.10;;;;;;5080061;28;20014;-89
2022/03/30 14:04:46;;;;;;;;;;;15.70;72.50;;;;;;5067789;28;20012;-89
2022/03/30 14:07:12;;;;;;;;;;;15.80;72.60;;;;;;5070714;28;19912;-89
2022/03/30 14:09:37;;;;;;;;;;;15.90;72.00;;;;;;5064814;28;19938;-89
2022/03/30 14:12:03;;;;;;;;;;;16.00;71.40;;;;;;5069023;28;19924;-89
2022/03/30 14:14:29;;;;;;;;;;;16.10;71.30;;;;;;5068141;28;20116;-89
2022/03/30 14:16:55;;;;;;;;;;;16.00;71.10;;;;;;5074448;28;19920;-89
2022/03/30 14:19:21;;;;;;;;;;;15.80;72.50;;;;;;5066033;28;19913;-89
2022/03/30 14:21:47;;;;;;;;;;;15.70;72.80;;;;;;5074983;28;19994;-89
2022/03/30 14:24:13;;;;;;;;;;;15.80;72.30;;;;;;5063057;28;19916;-89
2022/03/30 14:26:39;;;;;;;;;;;15.80;72.70;;;;;;5076321;28;19920;-89
2022/03/30 14:29:05;;;;;;;;;;;15.80;73.20;;;;;;5067769;28;19913;-89
2022/03/30 14:31:31;;;;;;;;;;;15.80;72.60;;;;;;5073063;28;19924;-89
2022/03/30 14:33:56;;;;;;;;;;;16.00;72.20;;;;;;5062902;28;19916;-89
2022/03/30 14:36:22;;;;;;;;;;;16.10;72.10;;;;;;5079074;28;20325;-90
2022/03/30 14:38:48;;;;;;;;;;;16.10;72.00;;;;;;5071465;28;19919;-89